This is the latest recevied weather packets stored in our database for station/object EA3GKP-10. If no packets are shown the sender has not sent any weather packets the latest 10 day(s).
| Time | Temp. | Humidity | Pressure | Rain* | Wind** | Luminosity | Snow |
|---|---|---|---|---|---|---|---|
| 1777564419 | 21.67° C | - | - | 0 mm | 1.34 m/s, 152° | - | - |
| 1777564116 | 22.78° C | - | - | 0 mm | 0.89 m/s, 98° | - | - |
| 1777563510 | 22.22° C | - | - | 0 mm | 2.68 m/s, 152° | - | - |
| 1777563207 | 22.78° C | - | - | 0 mm | 2.68 m/s, 127° | - | - |
| 1777562904 | 22.78° C | - | - | 0 mm | 1.79 m/s, 200° | - | - |
| 1777562601 | 23.33° C | - | - | 0 mm | 1.34 m/s, 201° | - | - |
| 1777562295 | 22.78° C | - | - | 0 mm | 2.24 m/s, 200° | - | - |
| 1777561993 | 23.33° C | - | - | 0 mm | 0.89 m/s, 224° | - | - |
| 1777561690 | 22.78° C | - | - | 0 mm | 0.89 m/s, 201° | - | - |
| 1777561084 | 22.22° C | - | - | 0 mm | 1.79 m/s, 121° | - | - |
| 1777560781 | 22.78° C | - | - | 0 mm | 2.24 m/s, 184° | - | - |
| 1777560478 | 22.78° C | - | - | 0 mm | 2.24 m/s, 186° | - | - |
| 1777560175 | 22.22° C | - | - | 0 mm | 1.34 m/s, 173° | - | - |
| 1777559872 | 22.22° C | - | - | 0 mm | 2.24 m/s, 198° | - | - |
| 1777559569 | 22.78° C | - | - | 0 mm | 2.24 m/s, 170° | - | - |
| 1777558961 | 22.78° C | - | - | 0 mm | 1.79 m/s, 169° | - | - |
| 1777558355 | 22.78° C | - | - | 0 mm | 1.34 m/s, 186° | - | - |
| 1777557750 | 23.33° C | - | - | 0 mm | 0.45 m/s, 200° | - | - |
| 1777557447 | 22.78° C | - | - | 0 mm | 2.24 m/s, 280° | - | - |
| 1777557144 | 23.33° C | - | - | 0 mm | 0.89 m/s, 215° | - | - |
| 1777555932 | 22.78° C | - | - | 0 mm | 1.79 m/s, 219° | - | - |
| 1777555326 | 22.78° C | - | - | 0 mm | 1.79 m/s, 221° | - | - |
| 1777555023 | 22.78° C | - | - | 0 mm | 1.79 m/s, 32° | - | - |
| 1777554720 | 22.78° C | - | - | 0 mm | 1.34 m/s, 135° | - | - |
| 1777554418 | 22.22° C | - | - | 0 mm | 1.34 m/s, 307° | - | - |
* Rain latest hour (hover to see other rain measurements)
** Current wind speed in m/s (hover to see current wind gust speed)